Time;durP1;ratioP1;P1;durP2;ratioP2;P2;SDS_P1;SDS_P2;PMS_P1;PMS_P2;Temp;Humidity;BMP_temperature;BMP_pressure;BME280_temperature;BME280_humidity;BME280_pressure;Samples;Min_cycle;Max_cycle;Signal;HPM_P1;HPM_P2
2022/02/13 00:00:51;;;;;;;14.67;9.03;;;;;;;6.21;45.06;98049.56;5106591;28;20434;-68
2022/02/13 00:03:16;;;;;;;14.77;9.60;;;;;;;6.34;44.64;98046.94;5114826;28;20424;-69
2022/02/13 00:05:42;;;;;;;16.30;9.67;;;;;;;6.37;44.98;98037.13;5114524;28;20178;-68
2022/02/13 00:08:08;;;;;;;12.60;9.10;;;;;;;6.45;44.30;98039.22;5114146;28;20539;-68
2022/02/13 00:10:33;;;;;;;13.50;9.37;;;;;;;6.44;44.75;98041.00;5113929;28;20212;-68
2022/02/13 00:12:59;;;;;;;15.80;9.70;;;;;;;6.55;44.63;98035.03;5114623;28;20551;-68
2022/02/13 00:15:24;;;;;;;14.73;9.40;;;;;;;6.51;44.67;98035.34;5114659;28;20177;-68
2022/02/13 00:17:50;;;;;;;11.53;9.20;;;;;;;6.58;44.76;98032.22;5105305;28;20288;-68
2022/02/13 00:20:15;;;;;;;12.07;8.83;;;;;;;6.67;44.33;98032.53;5114521;28;20207;-68
2022/02/13 00:22:41;;;;;;;13.50;9.40;;;;;;;6.73;44.02;98029.50;5114022;28;20186;-67
2022/02/13 00:25:07;;;;;;;13.50;10.03;;;;;;;6.69;44.02;98026.28;5114510;28;20185;-67
2022/02/13 00:27:32;;;;;;;15.40;10.57;;;;;;;6.73;43.99;98026.88;5114257;28;20551;-67
2022/02/13 00:29:58;;;;;;;18.13;10.80;;;;;;;6.68;43.86;98023.78;5113635;28;20199;-68
2022/02/13 00:32:26;;;;;;;14.20;9.53;;;;;;;6.54;44.22;98028.19;5114088;28;20192;-68
2022/02/13 00:34:51;;;;;;;13.80;9.57;;;;;;;6.55;44.21;98024.63;5114064;28;20245;-68
2022/02/13 00:37:17;;;;;;;15.80;10.33;;;;;;;6.37;44.85;98020.69;5113167;28;20438;-67
2022/02/13 00:39:43;;;;;;;14.13;8.93;;;;;;;6.40;44.64;98012.69;5113697;28;20811;-67
2022/02/13 00:42:08;;;;;;;18.50;11.87;;;;;;;6.41;44.48;98022.16;5113988;28;20185;-68
2022/02/13 00:44:34;;;;;;;18.73;10.30;;;;;;;6.45;44.17;98014.03;5113719;28;20186;-68
2022/02/13 00:47:00;;;;;;;15.40;9.27;;;;;;;6.52;44.15;98022.25;5113933;28;20727;-68
2022/02/13 00:49:25;;;;;;;22.90;10.73;;;;;;;6.49;43.87;98019.03;5112541;28;20450;-68
2022/02/13 00:51:51;;;;;;;14.47;9.17;;;;;;;6.54;44.34;98014.31;5113631;28;20177;-67
2022/02/13 00:54:16;;;;;;;14.10;9.67;;;;;;;6.57;44.53;98014.09;5113796;28;20597;-66
2022/02/13 00:56:42;;;;;;;14.73;10.00;;;;;;;6.51;44.78;98006.72;5113500;28;20188;-66
2022/02/13 00:59:07;;;;;;;13.03;8.93;;;;;;;6.42;44.58;98011.63;5113352;28;20202;-67
2022/02/13 01:01:33;;;;;;;19.40;9.77;;;;;;;6.48;44.57;98012.97;5113453;28;20722;-67
2022/02/13 01:03:58;;;;;;;18.93;10.63;;;;;;;6.47;44.74;98006.09;5113715;28;20407;-67
2022/02/13 01:06:27;;;;;;;14.20;9.30;;;;;;;6.52;44.67;98010.97;5113520;28;20182;-68
2022/02/13 01:08:52;;;;;;;16.53;9.63;;;;;;;6.52;44.64;98014.44;5103266;28;20275;-67
2022/02/13 01:11:18;;;;;;;13.90;10.30;;;;;;;6.54;44.62;98004.75;5113601;27;20846;-67
2022/02/13 01:13:48;;;;;;;13.93;9.30;;;;;;;6.54;44.26;97999.53;5113206;28;20189;-68
2022/02/13 01:16:16;;;;;;;15.13;9.30;;;;;;;6.54;44.20;98002.13;5103679;28;20186;-67
2022/02/13 01:18:42;;;;;;;12.63;9.10;;;;;;;6.53;44.37;97995.25;5112080;28;20900;-68
2022/02/13 01:21:08;;;;;;;11.60;7.97;;;;;;;6.51;43.96;97989.31;5086566;28;20495;-67
2022/02/13 01:23:34;;;;;;;15.27;9.70;;;;;;;6.53;43.98;97990.06;5113133;28;20176;-68
2022/02/13 01:25:59;;;;;;;15.83;9.60;;;;;;;6.52;43.85;97998.81;5113167;28;20426;-68
2022/02/13 01:28:25;;;;;;;14.07;9.40;;;;;;;6.50;44.32;97999.84;5112766;28;20415;-69
2022/02/13 01:30:50;;;;;;;12.63;8.67;;;;;;;6.47;44.25;97998.28;5094918;28;20287;-68
2022/02/13 01:33:16;;;;;;;14.77;8.90;;;;;;;6.49;44.71;98006.81;5112822;28;20177;-69
2022/02/13 01:35:42;;;;;;;13.70;9.37;;;;;;;6.53;44.20;98004.84;5113016;28;20199;-68
2022/02/13 01:38:07;;;;;;;12.87;8.77;;;;;;;6.53;44.13;97999.63;5112799;28;20234;-69
2022/02/13 01:40:33;;;;;;;13.43;9.77;;;;;;;6.49;44.51;97992.97;5112357;28;20439;-69
2022/02/13 01:42:58;;;;;;;15.07;9.37;;;;;;;6.49;44.45;97992.97;5112498;28;20194;-68
2022/02/13 01:45:23;;;;;;;14.00;9.97;;;;;;;6.50;44.48;97979.84;5113063;28;20569;-68
2022/02/13 01:47:49;;;;;;;13.30;9.50;;;;;;;6.43;44.85;97981.19;5111347;28;20199;-69
2022/02/13 01:50:14;;;;;;;18.43;10.37;;;;;;;6.44;44.84;97980.25;5112387;28;20237;-68
2022/02/13 01:52:42;;;;;;;12.63;9.40;;;;;;;6.45;45.04;97985.38;5112737;28;20263;-68
2022/02/13 01:55:08;;;;;;;12.63;8.90;;;;;;;6.25;45.09;97985.91;5112716;28;20181;-67
2022/02/13 01:57:34;;;;;;;12.53;9.30;;;;;;;6.24;45.27;97985.09;5112160;28;20441;-67
2022/02/13 01:59:59;;;;;;;14.00;9.50;;;;;;;6.33;45.28;97980.19;5112313;28;20437;-68
2022/02/13 02:02:25;;;;;;;15.77;9.27;;;;;;;6.24;45.37;97979.03;5111704;28;20547;-68
2022/02/13 02:04:52;;;;;;;19.77;8.90;;;;;;;6.19;45.74;97984.56;5112192;28;20230;-68
2022/02/13 02:07:17;;;;;;;13.40;9.57;;;;;;;6.22;45.81;97986.16;5112287;28;20216;-68
2022/02/13 02:09:47;;;;;;;11.87;9.27;;;;;;;6.32;45.41;97970.69;5111855;28;20939;-68
2022/02/13 02:12:12;;;;;;;13.33;9.07;;;;;;;6.38;45.59;97970.28;5112320;28;20643;-68
2022/02/13 02:14:38;;;;;;;14.20;8.90;;;;;;;6.32;45.70;97970.69;5112086;28;20433;-67
2022/02/13 02:17:03;;;;;;;16.30;9.87;;;;;;;6.42;45.55;97961.34;5112226;28;20554;-67
2022/02/13 02:19:31;;;;;;;12.83;9.60;;;;;;;6.44;45.00;97965.47;5092885;28;20206;-68
2022/02/13 02:21:56;;;;;;;14.83;8.67;;;;;;;6.48;45.22;97963.50;5112279;28;20182;-66
2022/02/13 02:24:21;;;;;;;9.80;8.20;;;;;;;6.32;45.37;97955.06;5112207;28;20464;-68
2022/02/13 02:26:47;;;;;;;13.10;9.10;;;;;;;6.31;45.66;97959.47;5112026;28;20665;-69
2022/02/13 02:29:12;;;;;;;16.07;9.20;;;;;;;6.43;45.76;97962.97;5111611;28;20276;-69
2022/02/13 02:31:38;;;;;;;12.40;8.97;;;;;;;6.49;45.65;97956.53;5111700;28;20272;-67
2022/02/13 02:34:03;;;;;;;14.50;9.80;;;;;;;6.51;45.09;97960.69;5112165;28;20200;-68
2022/02/13 02:36:29;;;;;;;12.17;8.67;;;;;;;6.53;45.57;97960.56;5111868;28;20196;-68
2022/02/13 02:38:54;;;;;;;15.90;10.00;;;;;;;6.52;44.99;97956.28;5111168;28;20636;-68
2022/02/13 02:41:20;;;;;;;15.33;9.87;;;;;;;6.45;45.03;97951.53;5111766;28;20182;-68
2022/02/13 02:43:46;;;;;;;13.87;8.80;;;;;;;6.42;45.63;97950.91;5111625;28;20182;-68
2022/02/13 02:46:12;;;;;;;12.87;9.00;;;;;;;6.48;45.37;97947.88;5111612;28;20704;-68
2022/02/13 02:48:38;;;;;;;15.33;10.07;;;;;;;6.53;45.69;97951.00;5110540;28;20829;-67
2022/02/13 02:51:04;;;;;;;12.97;9.13;;;;;;;6.54;45.80;97954.41;5111572;28;20437;-67
2022/02/13 02:53:31;;;;;;;12.37;9.23;;;;;;;6.61;45.53;97945.25;5111601;28;20436;-68
2022/02/13 02:55:56;;;;;;;14.73;9.40;;;;;;;6.60;45.24;97944.38;5111159;28;20949;-68
2022/02/13 02:58:23;;;;;;;11.77;8.73;;;;;;;6.63;45.13;97934.69;5110942;28;20491;-68
2022/02/13 03:00:50;;;;;;;17.27;8.67;;;;;;;6.64;45.53;97931.16;5111084;28;20178;-67
2022/02/13 03:03:17;;;;;;;10.43;8.23;;;;;;;6.64;45.52;97924.16;5111485;28;20412;-67
2022/02/13 03:05:43;;;;;;;11.53;8.57;;;;;;;6.67;45.64;97920.53;5101445;28;20424;-67
2022/02/13 03:08:09;;;;;;;11.20;8.30;;;;;;;6.70;45.80;97922.88;5111179;28;20416;-68
2022/02/13 03:10:34;;;;;;;10.83;8.07;;;;;;;6.72;46.04;97916.66;5111328;28;20864;-68
2022/02/13 03:13:00;;;;;;;10.80;7.60;;;;;;;6.74;46.35;97908.72;5111177;28;20182;-68
2022/02/13 03:15:25;;;;;;;12.03;7.63;;;;;;;6.76;45.97;97902.44;5111222;28;20533;-68
2022/02/13 03:17:51;;;;;;;11.57;7.30;;;;;;;6.76;46.11;97906.81;5110845;28;20181;-68
2022/02/13 03:20:16;;;;;;;12.60;7.37;;;;;;;6.83;46.41;97907.22;5111558;28;20274;-67
2022/02/13 03:22:42;;;;;;;9.93;7.77;;;;;;;6.79;46.71;97904.00;5111314;28;20179;-68
2022/02/13 03:25:08;;;;;;;9.67;7.20;;;;;;;6.89;45.96;97906.75;5111412;28;20179;-69
2022/02/13 03:27:33;;;;;;;7.93;6.40;;;;;;;6.64;46.88;97902.50;5111221;28;20652;-69
2022/02/13 03:29:59;;;;;;;13.40;7.63;;;;;;;6.83;46.72;97907.22;5110730;28;20541;-69
2022/02/13 03:32:24;;;;;;;10.27;7.80;;;;;;;6.91;46.50;97905.72;5111183;28;20561;-69
2022/02/13 03:34:50;;;;;;;8.07;6.90;;;;;;;6.98;46.16;97902.66;5102893;28;20194;-69
2022/02/13 03:37:15;;;;;;;10.80;7.20;;;;;;;7.04;46.29;97904.81;5111237;28;20663;-69
2022/02/13 03:39:41;;;;;;;11.10;8.03;;;;;;;7.02;46.22;97902.31;5110710;28;20256;-69
2022/02/13 03:42:07;;;;;;;11.90;8.50;;;;;;;7.06;46.19;97903.75;5111232;28;20609;-68
2022/02/13 03:44:36;;;;;;;16.60;9.63;;;;;;;7.11;45.60;97902.59;5111259;28;20185;-68
2022/02/13 03:47:03;;;;;;;18.37;10.70;;;;;;;7.01;45.63;97908.47;5111294;28;20418;-69
2022/02/13 03:49:29;;;;;;;14.63;8.30;;;;;;;7.01;45.71;97897.22;5109672;28;20439;-68
2022/02/13 03:51:55;;;;;;;12.97;8.30;;;;;;;6.92;46.11;97906.53;5111213;28;20411;-68
2022/02/13 03:54:20;;;;;;;17.13;9.80;;;;;;;6.80;45.97;97905.66;5111245;28;20420;-68
2022/02/13 03:56:46;;;;;;;16.30;9.27;;;;;;;6.71;46.07;97898.50;5110742;28;20524;-68
2022/02/13 03:59:11;;;;;;;16.93;9.27;;;;;;;6.69;46.12;97900.38;5110494;28;20200;-68
2022/02/13 04:01:37;;;;;;;18.40;9.60;;;;;;;6.66;46.07;97911.03;5111007;28;20181;-69
2022/02/13 04:04:02;;;;;;;16.73;8.63;;;;;;;6.65;46.37;97904.16;5111101;28;20262;-68
2022/02/13 04:06:28;;;;;;;13.23;8.43;;;;;;;6.57;46.60;97900.31;5110521;28;20180;-69
2022/02/13 04:08:53;;;;;;;12.50;7.63;;;;;;;6.61;46.68;97909.59;5099569;28;20193;-68
2022/02/13 04:11:19;;;;;;;9.13;7.20;;;;;;;6.65;46.38;97906.78;5110816;28;20239;-69
2022/02/13 04:13:44;;;;;;;12.90;8.20;;;;;;;6.74;46.22;97896.50;5114505;28;20226;-69
2022/02/13 04:16:10;;;;;;;9.17;7.30;;;;;;;6.71;46.10;97904.56;5112452;27;20686;-68
2022/02/13 04:18:35;;;;;;;11.53;7.30;;;;;;;6.65;46.67;97904.16;5098049;27;20243;-68
2022/02/13 04:21:01;;;;;;;11.50;7.40;;;;;;;6.70;46.72;97904.66;5094522;28;20261;-68
2022/02/13 04:23:29;;;;;;;11.17;7.50;;;;;;;6.73;45.94;97901.81;5104743;27;20189;-69
2022/02/13 04:25:55;;;;;;;12.10;7.33;;;;;;;6.79;46.44;97897.94;5109953;27;20183;-68
2022/02/13 04:28:20;;;;;;;11.67;7.37;;;;;;;6.81;45.85;97898.66;5093954;28;20823;-68
2022/02/13 04:30:46;;;;;;;10.37;7.27;;;;;;;6.78;46.23;97898.88;5094373;28;20471;-68
2022/02/13 04:33:11;;;;;;;12.33;8.20;;;;;;;6.79;46.54;97897.94;5110773;27;20264;-68
2022/02/13 04:35:37;;;;;;;7.73;6.83;;;;;;;6.77;46.34;97900.69;5097796;27;20173;-68
2022/02/13 04:38:03;;;;;;;11.03;7.40;;;;;;;6.78;46.58;97904.94;5094720;28;20200;-68
2022/02/13 04:40:28;;;;;;;10.60;7.50;;;;;;;6.73;46.53;97897.47;5113231;28;20611;-68
2022/02/13 04:42:54;;;;;;;11.30;7.57;;;;;;;6.76;46.37;97897.22;5114333;28;20410;-67
2022/02/13 04:45:19;;;;;;;10.23;7.07;;;;;;;6.78;46.19;97898.88;5095587;28;20173;-67
2022/02/13 04:47:45;;;;;;;10.87;7.97;;;;;;;6.75;45.76;97892.13;5095395;28;20186;-68
2022/02/13 04:50:10;;;;;;;13.90;6.73;;;;;;;6.72;46.34;97902.75;5113355;28;21152;-67
2022/02/13 04:52:36;;;;;;;11.87;7.80;;;;;;;6.73;46.36;97899.22;5113742;28;20181;-68
2022/02/13 04:55:02;;;;;;;7.40;6.10;;;;;;;6.69;46.28;97892.56;5113775;28;20238;-67
2022/02/13 04:57:28;;;;;;;12.40;7.50;;;;;;;6.68;46.26;97896.13;5113203;28;20634;-68
2022/02/13 04:59:53;;;;;;;11.70;7.90;;;;;;;6.59;46.20;97890.63;5113159;28;20456;-68
2022/02/13 05:02:19;;;;;;;10.70;7.73;;;;;;;6.52;46.42;97891.16;5113621;28;20585;-68
2022/02/13 05:04:45;;;;;;;9.50;7.27;;;;;;;6.38;47.08;97892.16;5112999;28;20187;-68
2022/02/13 05:07:10;;;;;;;14.23;7.10;;;;;;;6.24;47.45;97882.72;5113408;28;20202;-68
2022/02/13 05:09:36;;;;;;;9.63;6.70;;;;;;;6.19;47.60;97877.03;5112413;28;20206;-68
2022/02/13 05:12:02;;;;;;;11.53;7.20;;;;;;;6.19;47.73;97871.81;5113401;28;20203;-69
2022/02/13 05:14:27;;;;;;;10.30;7.70;;;;;;;6.13;47.51;97871.28;5113496;28;20218;-68
2022/02/13 05:16:53;;;;;;;10.27;7.47;;;;;;;6.16;48.01;97872.88;5113482;28;20235;-68
2022/02/13 05:19:18;;;;;;;9.90;7.03;;;;;;;6.11;47.80;97865.34;5113059;28;20210;-68
2022/02/13 05:21:44;;;;;;;14.03;7.10;;;;;;;6.20;48.12;97863.88;5113391;28;20184;-68
2022/02/13 05:24:09;;;;;;;12.50;8.17;;;;;;;6.23;47.68;97855.88;5112914;28;20180;-68
2022/02/13 05:26:35;;;;;;;11.10;6.60;;;;;;;6.28;48.32;97855.53;5094636;28;20177;-68
2022/02/13 05:29:01;;;;;;;11.00;7.03;;;;;;;6.40;48.12;97854.66;5112943;28;20190;-67
2022/02/13 05:31:30;;;;;;;10.20;6.50;;;;;;;6.45;48.18;97857.78;5112883;28;20907;-69
2022/02/13 05:33:59;;;;;;;7.63;5.83;;;;;;;6.54;47.82;97856.28;5113358;28;20930;-68
2022/02/13 05:36:25;;;;;;;10.23;6.50;;;;;;;6.63;47.52;97859.16;5112994;28;20423;-70
2022/02/13 05:38:50;;;;;;;8.77;6.53;;;;;;;6.73;47.58;97850.56;5112111;28;20460;-69
2022/02/13 05:41:16;;;;;;;8.20;5.60;;;;;;;6.84;47.51;97851.56;5112690;28;20177;-69
2022/02/13 05:43:41;;;;;;;11.73;6.20;;;;;;;6.90;47.44;97841.50;5112787;28;20712;-69
2022/02/13 05:46:06;;;;;;;7.20;5.70;;;;;;;7.01;47.31;97839.88;5112954;28;20226;-69
2022/02/13 05:48:32;;;;;;;7.20;5.30;;;;;;;7.09;46.87;97842.72;5112132;28;20286;-69
2022/02/13 05:50:58;;;;;;;8.03;5.90;;;;;;;7.16;46.95;97840.50;5113241;28;20643;-68
2022/02/13 05:53:24;;;;;;;7.10;5.50;;;;;;;7.20;46.84;97840.16;5113699;28;20207;-68
2022/02/13 05:55:50;;;;;;;11.40;6.33;;;;;;;7.25;46.79;97844.19;5114028;28;20828;-68
2022/02/13 05:58:16;;;;;;;10.90;6.00;;;;;;;7.25;46.49;97838.97;5121551;27;20585;-67
2022/02/13 06:00:42;;;;;;;8.07;5.87;;;;;;;7.34;46.56;97835.66;5114046;28;20247;-67
2022/02/13 06:03:07;;;;;;;8.73;5.67;;;;;;;7.28;46.69;97834.34;5114237;28;20424;-68
2022/02/13 06:05:32;;;;;;;10.13;6.63;;;;;;;7.34;46.33;97841.72;5121773;28;20447;-68
2022/02/13 06:07:58;;;;;;;16.57;8.60;;;;;;;7.20;45.80;97832.31;5121866;28;20224;-68
2022/02/13 06:10:23;;;;;;;22.07;8.77;;;;;;;7.30;46.32;97835.06;5119975;28;20198;-68
2022/02/13 06:12:49;;;;;;;14.27;8.80;;;;;;;7.43;46.41;97826.31;5119645;28;20212;-67
2022/02/13 06:15:14;;;;;;;19.70;11.00;;;;;;;7.47;46.18;97823.34;5121080;28;20191;-69
2022/02/13 06:17:40;;;;;;;22.00;9.50;;;;;;;7.52;45.65;97829.06;5124035;28;20663;-68
2022/02/13 06:20:06;;;;;;;20.23;9.00;;;;;;;7.54;46.02;97823.72;5122733;28;20211;-68
2022/02/13 06:22:31;;;;;;;17.87;7.60;;;;;;;7.48;45.60;97824.19;5118320;28;20217;-69
2022/02/13 06:24:57;;;;;;;17.10;7.27;;;;;;;7.55;45.87;97817.56;5124974;28;20429;-70
2022/02/13 06:27:22;;;;;;;22.50;9.30;;;;;;;7.52;46.02;97816.03;5103362;28;20296;-69
2022/02/13 06:29:49;;;;;;;25.57;8.37;;;;;;;7.54;45.27;97810.66;5118788;28;20230;-68
2022/02/13 06:32:15;;;;;;;13.63;6.30;;;;;;;7.53;45.65;97816.84;5121679;28;20175;-68
2022/02/13 06:34:40;;;;;;;13.13;6.63;;;;;;;7.55;45.84;97819.34;5122474;28;20555;-68
2022/02/13 06:37:06;;;;;;;11.50;7.17;;;;;;;7.44;45.63;97815.75;5125165;28;20185;-68
2022/02/13 06:39:31;;;;;;;12.03;6.73;;;;;;;7.45;46.05;97812.19;5127454;28;20208;-69
2022/02/13 06:41:57;;;;;;;9.30;5.57;;;;;;;7.33;46.12;97810.53;5129547;28;20186;-69
2022/02/13 06:44:22;;;;;;;12.50;6.20;;;;;;;7.30;46.36;97811.59;5127159;28;20190;-69
2022/02/13 06:46:47;;;;;;;14.93;7.27;;;;;;;7.32;46.40;97808.88;5122161;28;20303;-68
2022/02/13 06:49:13;;;;;;;12.03;7.10;;;;;;;7.47;45.85;97807.69;5122022;28;20712;-68
2022/02/13 06:51:39;;;;;;;9.17;5.90;;;;;;;7.55;45.90;97808.91;5123317;28;20189;-68
2022/02/13 06:54:04;;;;;;;8.00;6.40;;;;;;;7.56;45.87;97800.97;5123799;28;20199;-66
2022/02/13 06:56:30;;;;;;;8.23;5.63;;;;;;;7.53;45.96;97804.63;5124769;28;20183;-68
2022/02/13 06:58:55;;;;;;;13.37;5.80;;;;;;;7.50;45.64;97799.66;5106826;28;20211;-66
2022/02/13 07:01:21;;;;;;;12.67;6.10;;;;;;;7.48;45.57;97803.34;5127253;28;20208;-68
2022/02/13 07:03:46;;;;;;;8.63;5.97;;;;;;;7.41;46.32;97804.75;5128709;28;20183;-66
2022/02/13 07:06:12;;;;;;;6.70;5.73;;;;;;;7.42;45.68;97809.84;5127635;28;20190;-68
2022/02/13 07:08:37;;;;;;;7.13;5.40;;;;;;;7.43;46.02;97811.53;5123975;28;20290;-68
2022/02/13 07:11:03;;;;;;;7.77;5.40;;;;;;;7.46;45.80;97813.88;5125103;28;20209;-69
2022/02/13 07:13:28;;;;;;;8.30;5.63;;;;;;;7.49;46.23;97811.03;5127184;28;20183;-68
2022/02/13 07:15:54;;;;;;;11.67;6.30;;;;;;;7.66;45.71;97809.72;5128818;28;20200;-68
2022/02/13 07:18:19;;;;;;;6.57;5.23;;;;;;;7.70;45.58;97812.91;5129305;28;20277;-68
2022/02/13 07:20:45;;;;;;;10.57;6.30;;;;;;;7.86;45.60;97809.13;5127324;28;20211;-67
2022/02/13 07:23:10;;;;;;;13.07;6.03;;;;;;;7.99;44.97;97809.81;5120062;28;20184;-67
2022/02/13 07:25:36;;;;;;;12.30;6.27;;;;;;;8.13;45.00;97806.09;5121967;28;20786;-67
2022/02/13 07:28:58;;;;;;;8.30;5.77;;;;;;;8.14;45.10;97799.94;5116389;28;20173;-69
2022/02/13 07:30:50;;;;;;;9.20;6.00;;;;;;;8.16;44.72;97798.03;5114822;28;20234;-69
2022/02/13 07:33:16;;;;;;;10.53;5.70;;;;;;;8.05;45.22;97811.97;5096164;28;20529;-68
2022/02/13 07:35:43;;;;;;;8.63;5.50;;;;;;;8.12;45.30;97796.63;5113884;28;20430;-69
2022/02/13 07:38:09;;;;;;;7.53;5.70;;;;;;;8.20;45.55;97793.38;5114324;28;20199;-69
2022/02/13 07:40:35;;;;;;;9.53;5.70;;;;;;;8.21;44.87;97795.03;5113622;28;20438;-68
2022/02/13 07:43:00;;;;;;;7.83;5.70;;;;;;;8.28;44.56;97801.47;5113389;28;20448;-67
2022/02/13 07:45:26;;;;;;;7.47;5.37;;;;;;;8.24;45.15;97794.81;5114157;28;20172;-68
2022/02/13 07:47:51;;;;;;;10.93;5.87;;;;;;;8.30;45.35;97789.09;5115692;28;20266;-67
2022/02/13 07:50:17;;;;;;;14.27;6.40;;;;;;;8.37;44.64;97790.25;5117627;28;20299;-68
2022/02/13 07:52:42;;;;;;;11.23;6.20;;;;;;;8.34;45.14;97782.66;5119055;28;20271;-68
2022/02/13 07:55:08;;;;;;;11.10;6.13;;;;;;;8.41;45.10;97791.69;5126822;27;20879;-67
2022/02/13 07:57:34;;;;;;;7.77;6.43;;;;;;;8.41;44.96;97783.84;5116346;28;20197;-69
2022/02/13 07:59:59;;;;;;;10.00;5.90;;;;;;;8.48;44.98;97785.97;5118511;28;20209;-68
2022/02/13 08:02:24;;;;;;;9.80;5.97;;;;;;;8.62;44.80;97777.84;5118118;27;20551;-66
2022/02/13 08:04:50;;;;;;;10.53;5.50;;;;;;;8.53;45.42;97783.81;5115479;28;20171;-67
2022/02/13 08:07:15;;;;;;;10.87;5.40;;;;;;;8.68;44.92;97776.50;5116336;28;20341;-69
2022/02/13 08:09:42;;;;;;;7.73;5.00;;;;;;;8.75;44.86;97778.50;5113754;28;20196;-68
2022/02/13 08:12:09;;;;;;;10.23;5.70;;;;;;;8.79;44.35;97778.25;5110333;28;20190;-68
2022/02/13 08:14:35;;;;;;;9.20;5.43;;;;;;;8.96;44.68;97776.84;5115054;28;20433;-69
2022/02/13 08:17:00;;;;;;;11.97;6.27;;;;;;;8.97;44.32;97776.69;5112101;27;20432;-68
2022/02/13 08:19:26;;;;;;;8.70;5.80;;;;;;;9.09;44.33;97776.63;5113476;27;20212;-68
2022/02/13 08:21:51;;;;;;;9.70;5.80;;;;;;;9.39;43.80;97767.97;5119990;28;20179;-68
2022/02/13 08:24:17;;;;;;;9.43;7.47;;;;;;;9.73;42.95;97777.31;5114292;28;20180;-69
2022/02/13 08:26:42;;;;;;;10.10;6.40;;;;;;;10.07;42.74;97774.41;5114144;28;20218;-68
2022/02/13 08:29:08;;;;;;;9.23;5.67;;;;;;;10.41;41.47;97767.00;5113995;28;20887;-68
2022/02/13 08:31:33;;;;;;;12.50;6.20;;;;;;;10.60;41.24;97766.19;5114339;28;20593;-68
2022/02/13 08:33:58;;;;;;;9.57;6.33;;;;;;;10.97;41.09;97756.75;5114446;28;20184;-68
2022/02/13 08:36:24;;;;;;;7.60;5.93;;;;;;;11.33;40.18;97759.56;5114601;28;20243;-68
2022/02/13 08:38:50;;;;;;;9.27;5.90;;;;;;;11.56;39.75;97755.75;5114027;28;20208;-68
2022/02/13 08:41:16;;;;;;;9.17;5.60;;;;;;;11.77;39.07;97761.56;5114027;28;20593;-69
2022/02/13 08:43:41;;;;;;;13.93;6.33;;;;;;;12.00;38.78;97758.56;5078022;28;20213;-68
2022/02/13 08:46:06;;;;;;;9.10;5.60;;;;;;;12.12;38.46;97757.38;5111550;27;20179;-68
2022/02/13 08:48:32;;;;;;;6.93;5.33;;;;;;;12.42;38.25;97757.16;5112830;28;20609;-68
2022/02/13 08:50:57;;;;;;;7.30;5.10;;;;;;;12.69;38.04;97758.06;5113768;28;20183;-68
2022/02/13 08:53:23;;;;;;;9.70;5.80;;;;;;;12.83;37.30;97752.25;5113772;28;20177;-67
2022/02/13 08:55:48;;;;;;;10.83;6.20;;;;;;;12.91;37.14;97740.97;5113170;28;20573;-69
2022/02/13 08:58:14;;;;;;;10.57;6.33;;;;;;;13.16;36.80;97739.34;5112604;28;20225;-68
2022/02/13 09:00:39;;;;;;;9.73;6.10;;;;;;;13.41;36.75;97744.75;5113346;28;20177;-68
2022/02/13 09:03:05;;;;;;;9.23;5.40;;;;;;;13.52;36.35;97743.63;5113480;28;20679;-68
2022/02/13 09:05:30;;;;;;;11.47;5.70;;;;;;;13.76;35.30;97747.34;5113367;28;20252;-68
2022/02/13 09:07:55;;;;;;;13.17;6.20;;;;;;;13.72;35.71;97744.22;5113544;28;20176;-68
2022/02/13 09:10:21;;;;;;;8.90;6.20;;;;;;;13.89;35.53;97745.09;5113436;28;20201;-70
2022/02/13 09:12:46;;;;;;;10.97;5.93;;;;;;;14.29;37.35;97734.81;5113197;28;20178;-68
2022/02/13 09:15:12;;;;;;;11.40;6.43;;;;;;;14.58;36.04;97736.97;5113070;28;20189;-69
2022/02/13 09:17:38;;;;;;;9.63;5.97;;;;;;;14.84;34.69;97729.88;5112608;28;20196;-68
2022/02/13 09:20:05;;;;;;;8.77;5.80;;;;;;;14.98;35.11;97728.41;5112786;28;20295;-68
2022/02/13 09:22:30;;;;;;;14.70;6.37;;;;;;;15.32;34.38;97736.06;5113163;28;20229;-68
2022/02/13 09:24:56;;;;;;;7.90;5.67;;;;;;;15.46;34.64;97725.78;5113014;28;20451;-68
2022/02/13 09:27:21;;;;;;;9.90;6.00;;;;;;;15.51;33.83;97721.63;5113672;28;20183;-67
2022/02/13 09:29:47;;;;;;;15.77;7.00;;;;;;;15.29;33.46;97725.00;5112477;28;20203;-67
2022/02/13 09:32:12;;;;;;;8.20;5.03;;;;;;;15.34;34.19;97720.06;5113603;27;20655;-69
2022/02/13 09:34:38;;;;;;;20.67;6.87;;;;;;;15.59;33.76;97725.25;5113075;28;20182;-68
2022/02/13 09:37:03;;;;;;;8.47;5.20;;;;;;;15.93;34.36;97724.13;5113460;28;20173;-68
2022/02/13 09:39:29;;;;;;;10.80;6.00;;;;;;;16.28;33.24;97719.25;5094348;28;20223;-69
2022/02/13 09:41:55;;;;;;;7.17;5.67;;;;;;;16.48;32.52;97719.59;5113071;28;20564;-68
2022/02/13 09:44:21;;;;;;;10.30;5.27;;;;;;;16.45;32.81;97713.88;5112701;28;20450;-68
2022/02/13 09:46:47;;;;;;;8.57;6.07;;;;;;;16.40;32.51;97717.03;5112752;28;20230;-67
2022/02/13 09:49:16;;;;;;;9.20;6.27;;;;;;;16.62;32.52;97704.81;5112483;28;20438;-68
2022/02/13 09:51:41;;;;;;;10.93;5.93;;;;;;;16.55;31.91;97699.41;5110821;27;20184;-68
2022/02/13 09:54:07;;;;;;;11.27;5.50;;;;;;;17.04;32.29;97695.47;5111452;28;20439;-67
2022/02/13 09:56:34;;;;;;;8.13;6.20;;;;;;;16.70;31.42;97694.13;5112250;28;20219;-67
2022/02/13 09:59:00;;;;;;;8.53;5.57;;;;;;;16.86;32.56;97695.78;5111673;28;20855;-69
2022/02/13 10:01:37;;;;;;;10.50;6.10;;;;;;;16.69;31.75;97687.19;5112088;28;20499;-69
2022/02/13 10:04:03;;;;;;;14.50;6.27;;;;;;;16.81;31.10;97684.09;5112579;28;20427;-68
2022/02/13 10:06:29;;;;;;;10.50;5.47;;;;;;;16.94;31.02;97676.41;5113178;28;20413;-68
2022/02/13 10:08:56;;;;;;;15.53;6.07;;;;;;;16.93;31.78;97684.50;5111952;28;20796;-67
2022/02/13 10:11:35;;;;;;;10.00;6.50;;;;;;;17.16;30.99;97679.13;5111717;28;20710;-66
2022/02/13 10:14:05;;;;;;;13.10;6.10;;;;;;;17.07;30.94;97672.28;5094066;28;20411;-67
2022/02/13 10:16:36;;;;;;;11.63;5.50;;;;;;;17.00;31.05;97674.84;5112111;28;20944;-66
2022/02/13 10:19:07;;;;;;;13.23;6.13;;;;;;;17.36;31.40;97663.50;5116489;28;20454;-67
2022/02/13 10:21:39;;;;;;;9.97;6.57;;;;;;;17.34;30.67;97665.50;5111850;28;20428;-68
2022/02/13 10:24:27;;;;;;;13.60;5.50;;;;;;;17.48;30.57;97669.16;5110982;28;20472;-68
2022/02/13 10:26:56;;;;;;;11.00;6.00;;;;;;;17.29;30.84;97667.91;5104151;28;20446;-67
2022/02/13 10:29:27;;;;;;;9.23;5.23;;;;;;;17.32;30.49;97651.66;5111552;28;20431;-67
2022/02/13 10:32:08;;;;;;;11.20;5.77;;;;;;;17.80;30.60;97659.13;5112159;28;20995;-68
2022/02/13 10:34:33;;;;;;;8.47;6.27;;;;;;;17.64;30.16;97654.88;5111632;28;20431;-67
2022/02/13 10:36:59;;;;;;;17.60;6.37;;;;;;;17.76;30.30;97645.44;5111782;28;20433;-67
2022/02/13 10:39:25;;;;;;;7.93;6.47;;;;;;;17.90;29.61;97643.72;5111370;28;20204;-68
2022/02/13 10:41:52;;;;;;;13.20;6.60;;;;;;;18.06;29.88;97641.88;5086355;28;20177;-68
2022/02/13 10:44:25;;;;;;;8.63;5.83;;;;;;;18.55;28.57;97622.47;5111710;28;20422;-68
2022/02/13 10:46:50;;;;;;;11.50;5.70;;;;;;;18.27;28.06;97622.47;5111425;28;20514;-68
2022/02/13 10:49:16;;;;;;;15.90;5.97;;;;;;;18.10;28.01;97616.63;5111149;28;20522;-68
2022/02/13 10:51:42;;;;;;;9.70;5.87;;;;;;;17.60;28.37;97619.13;5109643;28;20322;-67
2022/02/13 10:54:08;;;;;;;8.53;5.13;;;;;;;18.16;28.02;97605.22;5111291;28;20653;-67
2022/02/13 10:56:37;;;;;;;10.50;5.60;;;;;;;18.64;27.69;97601.94;5111185;28;20419;-68
2022/02/13 10:59:04;;;;;;;13.50;5.77;;;;;;;19.16;26.98;97597.13;5110821;28;20586;-68
2022/02/13 11:01:29;;;;;;;11.67;5.80;;;;;;;18.27;26.77;97599.41;5110727;28;20512;-68
2022/02/13 11:04:03;;;;;;;10.87;5.70;;;;;;;18.44;26.98;97596.47;5107485;28;20919;-68
2022/02/13 11:06:33;;;;;;;7.80;5.20;;;;;;;18.75;27.19;97587.31;5110098;28;20181;-68
2022/02/13 11:09:07;;;;;;;12.53;5.50;;;;;;;19.23;26.28;97591.84;5111046;28;20814;-68
2022/02/13 11:11:33;;;;;;;10.60;5.40;;;;;;;19.06;25.91;97578.06;5092933;28;20792;-68
2022/02/13 11:13:59;;;;;;;7.93;5.10;;;;;;;19.36;26.31;97576.94;5102750;28;20423;-68
2022/02/13 11:16:33;;;;;;;9.73;5.50;;;;;;;19.72;25.87;97574.00;5111250;28;20709;-68
2022/02/13 11:19:02;;;;;;;8.00;4.73;;;;;;;19.26;25.65;97562.22;5111117;28;20462;-69
2022/02/13 11:21:32;;;;;;;6.80;5.00;;;;;;;18.96;26.14;97570.50;5113496;28;20419;-69
2022/02/13 11:23:58;;;;;;;8.83;5.00;;;;;;;19.19;26.33;97548.91;5115591;28;20870;-68
2022/02/13 11:26:35;;;;;;;7.50;4.83;;;;;;;18.65;25.97;97560.28;5115157;28;20457;-68
2022/02/13 11:29:01;;;;;;;8.53;5.10;;;;;;;19.14;26.14;97554.03;5115251;28;20791;-70